Time;durP1;ratioP1;P1;durP2;ratioP2;P2;SDS_P1;SDS_P2;PMS_P1;PMS_P2;Temp;Humidity;BMP_temperature;BMP_pressure;BME280_temperature;BME280_humidity;BME280_pressure;Samples;Min_cycle;Max_cycle;Signal;HPM_P1;HPM_P2
2022/05/23 00:00:49;;;;;;;3.5;2.85;;;;;;;17.59;52.10156;94637.48;;;;
2022/05/23 00:01:50;;;;;;;3.5;2.85;;;;;;;17.59;52.10156;94637.48;;;;
2022/05/23 00:02:51;;;;;;;3.5;2.85;;;;;;;17.59;52.10156;94637.48;;;;
2022/05/23 00:03:51;;;;;;;3.5;2.85;;;;;;;17.59;52.10156;94637.48;;;;
2022/05/23 00:04:52;;;;;;;3.5;2.85;;;;;;;17.59;52.10156;94637.48;;;;
2022/05/23 00:05:52;;;;;;;3.5;2.85;;;;;;;17.59;52.10156;94637.48;;;;
2022/05/23 00:06:53;;;;;;;3.450001;2.65;;;;;;;17.51;52.54297;94615.31;;;;
2022/05/23 00:07:56;;;;;;;3.450001;2.65;;;;;;;17.51;52.54297;94615.31;;;;
2022/05/23 00:08:57;;;;;;;3.450001;2.65;;;;;;;17.51;52.54297;94615.31;;;;
2022/05/23 00:09:58;;;;;;;3.450001;2.65;;;;;;;17.51;52.54297;94615.31;;;;
2022/05/23 00:10:59;;;;;;;3.450001;2.65;;;;;;;17.51;52.54297;94615.31;;;;
2022/05/23 00:11:59;;;;;;;3.450001;2.65;;;;;;;17.51;52.54297;94615.31;;;;
2022/05/23 00:13:00;;;;;;;3.450001;2.65;;;;;;;17.51;52.54297;94615.31;;;;
2022/05/23 00:14:00;;;;;;;3.450001;2.65;;;;;;;17.51;52.54297;94615.31;;;;
2022/05/23 00:15:01;;;;;;;3.450001;2.65;;;;;;;17.51;52.54297;94615.31;;;;
2022/05/23 00:16:02;;;;;;;3.450001;2.65;;;;;;;17.51;52.54297;94615.31;;;;
2022/05/23 00:17:04;;;;;;;3.1;2.8;;;;;;;17.28;52.93262;94601.56;;;;
2022/05/23 00:18:05;;;;;;;3.1;2.8;;;;;;;17.28;52.93262;94601.56;;;;
2022/05/23 00:19:06;;;;;;;3.1;2.8;;;;;;;17.28;52.93262;94601.56;;;;
2022/05/23 00:20:07;;;;;;;3.1;2.8;;;;;;;17.28;52.93262;94601.56;;;;
2022/05/23 00:21:10;;;;;;;3.1;2.8;;;;;;;17.28;52.93262;94601.56;;;;
2022/05/23 00:22:11;;;;;;;3.1;2.8;;;;;;;17.28;52.93262;94601.56;;;;
2022/05/23 00:23:13;;;;;;;3.1;2.8;;;;;;;17.28;52.93262;94601.56;;;;
2022/05/23 00:24:13;;;;;;;3.1;2.8;;;;;;;17.28;52.93262;94601.56;;;;
2022/05/23 00:25:15;;;;;;;3.1;2.8;;;;;;;17.28;52.93262;94601.56;;;;
2022/05/23 00:26:16;;;;;;;3.1;2.8;;;;;;;17.28;52.93262;94601.56;;;;
2022/05/23 00:27:19;;;;;;;3.1;2.8;;;;;;;17.28;52.93262;94601.56;;;;
2022/05/23 00:28:22;;;;;;;3.15;2.7;;;;;;;17.19;53.375;94599.99;;;;
2022/05/23 00:29:23;;;;;;;3.15;2.7;;;;;;;17.19;53.375;94599.99;;;;
2022/05/23 00:30:24;;;;;;;3.15;2.7;;;;;;;17.19;53.375;94599.99;;;;
2022/05/23 00:31:26;;;;;;;3.15;2.7;;;;;;;17.19;53.375;94599.99;;;;
2022/05/23 00:37:39;;;;;;;3.15;2.7;;;;;;;17.19;53.375;94599.99;;;;
2022/05/23 00:38:40;;;;;;;6.600001;4.099999;;;;;;;17.11;53.62793;94594.39;;;;
2022/05/23 00:39:41;;;;;;;6.600001;4.099999;;;;;;;17.11;53.62793;94594.39;;;;
2022/05/23 00:40:41;;;;;;;6.600001;4.099999;;;;;;;17.11;53.62793;94594.39;;;;
2022/05/23 00:47:04;;;;;;;6.600001;4.099999;;;;;;;17.11;53.62793;94594.39;;;;
2022/05/23 00:48:17;;;;;;;6.600001;4.099999;;;;;;;17.11;53.62793;94594.39;;;;
2022/05/23 00:49:20;;;;;;;7.700001;5.2;;;;;;;17.06;53.9082;94586.78;;;;
2022/05/23 00:50:25;;;;;;;7.700001;5.2;;;;;;;17.06;53.9082;94586.78;;;;
2022/05/23 00:51:25;;;;;;;7.700001;5.2;;;;;;;17.06;53.9082;94586.78;;;;
2022/05/23 00:52:26;;;;;;;7.700001;5.2;;;;;;;17.06;53.9082;94586.78;;;;
2022/05/23 00:53:31;;;;;;;7.700001;5.2;;;;;;;17.06;53.9082;94586.78;;;;
2022/05/23 00:54:48;;;;;;;7.700001;5.2;;;;;;;17.06;53.9082;94586.78;;;;
2022/05/23 00:55:51;;;;;;;7.700001;5.2;;;;;;;17.06;53.9082;94586.78;;;;
2022/05/23 00:56:51;;;;;;;7.700001;5.2;;;;;;;17.06;53.9082;94586.78;;;;
2022/05/23 00:57:52;;;;;;;7.700001;5.2;;;;;;;17.06;53.9082;94586.78;;;;
2022/05/23 00:59:01;;;;;;;7.700001;5.2;;;;;;;17.06;53.9082;94586.78;;;;
2022/05/23 01:00:04;;;;;;;8.000002;4.5;;;;;;;16.99;54.08691;94601.34;;;;
2022/05/23 01:01:08;;;;;;;8.000002;4.5;;;;;;;16.99;54.08691;94601.34;;;;
2022/05/23 01:02:11;;;;;;;8.000002;4.5;;;;;;;16.99;54.08691;94601.34;;;;
2022/05/23 01:03:12;;;;;;;8.000002;4.5;;;;;;;16.99;54.08691;94601.34;;;;
2022/05/23 01:04:16;;;;;;;8.000002;4.5;;;;;;;16.99;54.08691;94601.34;;;;
2022/05/23 01:05:17;;;;;;;8.000002;4.5;;;;;;;16.99;54.08691;94601.34;;;;
2022/05/23 01:06:18;;;;;;;8.000002;4.5;;;;;;;16.99;54.08691;94601.34;;;;
2022/05/23 01:07:19;;;;;;;8.000002;4.5;;;;;;;16.99;54.08691;94601.34;;;;
2022/05/23 01:08:20;;;;;;;8.000002;4.5;;;;;;;16.99;54.08691;94601.34;;;;
2022/05/23 01:09:23;;;;;;;8.000002;4.5;;;;;;;16.99;54.08691;94601.34;;;;
2022/05/23 01:10:24;;;;;;;4.15;3.25;;;;;;;16.98;54.40234;94602.53;;;;
2022/05/23 01:11:24;;;;;;;4.15;3.25;;;;;;;16.98;54.40234;94602.53;;;;
2022/05/23 01:12:25;;;;;;;4.15;3.25;;;;;;;16.98;54.40234;94602.53;;;;
2022/05/23 01:13:27;;;;;;;4.15;3.25;;;;;;;16.98;54.40234;94602.53;;;;
2022/05/23 01:14:28;;;;;;;4.15;3.25;;;;;;;16.98;54.40234;94602.53;;;;
2022/05/23 01:15:45;;;;;;;4.15;3.25;;;;;;;16.98;54.40234;94602.53;;;;
2022/05/23 01:16:49;;;;;;;4.15;3.25;;;;;;;16.98;54.40234;94602.53;;;;
2022/05/23 01:17:50;;;;;;;4.15;3.25;;;;;;;16.98;54.40234;94602.53;;;;
2022/05/23 01:18:51;;;;;;;4.15;3.25;;;;;;;16.98;54.40234;94602.53;;;;
2022/05/23 01:19:51;;;;;;;4.15;3.25;;;;;;;16.98;54.40234;94602.53;;;;
2022/05/23 01:20:52;;;;;;;3.7;2.85;;;;;;;16.88;54.71973;94585.05;;;;
2022/05/23 01:21:57;;;;;;;3.7;2.85;;;;;;;16.88;54.71973;94585.05;;;;
2022/05/23 01:23:03;;;;;;;3.7;2.85;;;;;;;16.88;54.71973;94585.05;;;;
2022/05/23 01:24:29;;;;;;;3.7;2.85;;;;;;;16.88;54.71973;94585.05;;;;
2022/05/23 01:25:34;;;;;;;3.7;2.85;;;;;;;16.88;54.71973;94585.05;;;;
2022/05/23 01:26:38;;;;;;;3.7;2.85;;;;;;;16.88;54.71973;94585.05;;;;
2022/05/23 01:27:39;;;;;;;3.7;2.85;;;;;;;16.88;54.71973;94585.05;;;;
2022/05/23 01:28:40;;;;;;;3.7;2.85;;;;;;;16.88;54.71973;94585.05;;;;
2022/05/23 01:29:42;;;;;;;3.7;2.85;;;;;;;16.88;54.71973;94585.05;;;;
2022/05/23 01:30:43;;;;;;;3.7;2.85;;;;;;;16.88;54.71973;94585.05;;;;
2022/05/23 01:31:45;;;;;;;3.2;2.9;;;;;;;16.85;55.06738;94577.59;;;;
2022/05/23 01:32:45;;;;;;;3.2;2.9;;;;;;;16.85;55.06738;94577.59;;;;
2022/05/23 01:33:45;;;;;;;3.2;2.9;;;;;;;16.85;55.06738;94577.59;;;;
2022/05/23 01:34:46;;;;;;;3.2;2.9;;;;;;;16.85;55.06738;94577.59;;;;
2022/05/23 01:35:47;;;;;;;3.2;2.9;;;;;;;16.85;55.06738;94577.59;;;;
2022/05/23 01:36:47;;;;;;;3.2;2.9;;;;;;;16.85;55.06738;94577.59;;;;
2022/05/23 01:37:48;;;;;;;3.2;2.9;;;;;;;16.85;55.06738;94577.59;;;;
2022/05/23 01:38:48;;;;;;;3.2;2.9;;;;;;;16.85;55.06738;94577.59;;;;
2022/05/23 01:39:49;;;;;;;3.2;2.9;;;;;;;16.85;55.06738;94577.59;;;;
2022/05/23 01:40:49;;;;;;;3.2;2.9;;;;;;;16.85;55.06738;94577.59;;;;
2022/05/23 01:41:50;;;;;;;3.2;2.9;;;;;;;16.85;55.06738;94577.59;;;;
2022/05/23 01:42:50;;;;;;;4.9;2.8;;;;;;;16.76;55.45215;94558.78;;;;
2022/05/23 01:43:53;;;;;;;4.9;2.8;;;;;;;16.76;55.45215;94558.78;;;;
2022/05/23 01:44:53;;;;;;;4.9;2.8;;;;;;;16.76;55.45215;94558.78;;;;
2022/05/23 01:45:54;;;;;;;4.9;2.8;;;;;;;16.76;55.45215;94558.78;;;;
2022/05/23 01:46:54;;;;;;;4.9;2.8;;;;;;;16.76;55.45215;94558.78;;;;
2022/05/23 01:47:55;;;;;;;4.9;2.8;;;;;;;16.76;55.45215;94558.78;;;;
2022/05/23 01:48:56;;;;;;;4.9;2.8;;;;;;;16.76;55.45215;94558.78;;;;
2022/05/23 01:49:56;;;;;;;4.9;2.8;;;;;;;16.76;55.45215;94558.78;;;;
2022/05/23 01:50:57;;;;;;;4.9;2.8;;;;;;;16.76;55.45215;94558.78;;;;
2022/05/23 01:51:57;;;;;;;4.9;2.8;;;;;;;16.76;55.45215;94558.78;;;;
2022/05/23 01:52:58;;;;;;;3.75;2.8;;;;;;;16.74;55.84375;94549.42;;;;
2022/05/23 01:53:58;;;;;;;3.75;2.8;;;;;;;16.74;55.84375;94549.42;;;;
2022/05/23 01:54:59;;;;;;;3.75;2.8;;;;;;;16.74;55.84375;94549.42;;;;
2022/05/23 01:56:02;;;;;;;3.75;2.8;;;;;;;16.74;55.84375;94549.42;;;;
2022/05/23 01:57:04;;;;;;;3.75;2.8;;;;;;;16.74;55.84375;94549.42;;;;
2022/05/23 01:58:07;;;;;;;3.75;2.8;;;;;;;16.74;55.84375;94549.42;;;;
2022/05/23 02:04:21;;;;;;;5.25;2.95;;;;;;;16.72;56.0498;94555.55;;;;
2022/05/23 02:05:23;;;;;;;5.25;2.95;;;;;;;16.72;56.0498;94555.55;;;;
2022/05/23 02:06:24;;;;;;;5.25;2.95;;;;;;;16.72;56.0498;94555.55;;;;
2022/05/23 02:07:24;;;;;;;5.25;2.95;;;;;;;16.72;56.0498;94555.55;;;;
2022/05/23 02:08:25;;;;;;;5.25;2.95;;;;;;;16.72;56.0498;94555.55;;;;
2022/05/23 02:09:26;;;;;;;5.25;2.95;;;;;;;16.72;56.0498;94555.55;;;;
2022/05/23 02:10:27;;;;;;;5.25;2.95;;;;;;;16.72;56.0498;94555.55;;;;
2022/05/23 02:11:29;;;;;;;5.25;2.95;;;;;;;16.72;56.0498;94555.55;;;;
2022/05/23 02:12:29;;;;;;;5.25;2.95;;;;;;;16.72;56.0498;94555.55;;;;
2022/05/23 02:13:30;;;;;;;5.25;2.95;;;;;;;16.72;56.0498;94555.55;;;;
2022/05/23 02:14:31;;;;;;;3.9;2.8;;;;;;;16.76;56.37305;94568.64;;;;
2022/05/23 02:15:32;;;;;;;3.9;2.8;;;;;;;16.76;56.37305;94568.64;;;;
2022/05/23 02:16:33;;;;;;;3.9;2.8;;;;;;;16.76;56.37305;94568.64;;;;
2022/05/23 02:17:33;;;;;;;3.9;2.8;;;;;;;16.76;56.37305;94568.64;;;;
2022/05/23 02:18:34;;;;;;;3.9;2.8;;;;;;;16.76;56.37305;94568.64;;;;
2022/05/23 02:19:36;;;;;;;3.9;2.8;;;;;;;16.76;56.37305;94568.64;;;;
2022/05/23 02:20:37;;;;;;;3.9;2.8;;;;;;;16.76;56.37305;94568.64;;;;
2022/05/23 02:21:37;;;;;;;3.9;2.8;;;;;;;16.76;56.37305;94568.64;;;;
2022/05/23 02:22:38;;;;;;;3.9;2.8;;;;;;;16.76;56.37305;94568.64;;;;
2022/05/23 02:23:39;;;;;;;3.9;2.8;;;;;;;16.76;56.37305;94568.64;;;;
2022/05/23 02:24:39;;;;;;;3.9;2.8;;;;;;;16.76;56.37305;94568.64;;;;
2022/05/23 02:25:40;;;;;;;3.3;2.85;;;;;;;16.76;56.61426;94566.38;;;;
2022/05/23 02:26:40;;;;;;;3.3;2.85;;;;;;;16.76;56.61426;94566.38;;;;
2022/05/23 02:27:41;;;;;;;3.3;2.85;;;;;;;16.76;56.61426;94566.38;;;;
2022/05/23 02:28:42;;;;;;;3.3;2.85;;;;;;;16.76;56.61426;94566.38;;;;
2022/05/23 02:29:42;;;;;;;3.3;2.85;;;;;;;16.76;56.61426;94566.38;;;;
2022/05/23 02:30:43;;;;;;;3.3;2.85;;;;;;;16.76;56.61426;94566.38;;;;
2022/05/23 02:31:43;;;;;;;3.3;2.85;;;;;;;16.76;56.61426;94566.38;;;;
2022/05/23 02:32:45;;;;;;;3.3;2.85;;;;;;;16.76;56.61426;94566.38;;;;
2022/05/23 02:33:46;;;;;;;3.3;2.85;;;;;;;16.76;56.61426;94566.38;;;;
2022/05/23 02:34:46;;;;;;;3.3;2.85;;;;;;;16.76;56.61426;94566.38;;;;
2022/05/23 02:35:47;;;;;;;3.8;2.8;;;;;;;16.81;56.74121;94541.96;;;;
2022/05/23 02:36:48;;;;;;;3.8;2.8;;;;;;;16.81;56.74121;94541.96;;;;
2022/05/23 02:37:49;;;;;;;3.8;2.8;;;;;;;16.81;56.74121;94541.96;;;;
2022/05/23 02:38:49;;;;;;;3.8;2.8;;;;;;;16.81;56.74121;94541.96;;;;
2022/05/23 02:39:49;;;;;;;3.8;2.8;;;;;;;16.81;56.74121;94541.96;;;;
2022/05/23 02:40:50;;;;;;;3.8;2.8;;;;;;;16.81;56.74121;94541.96;;;;
2022/05/23 02:41:51;;;;;;;3.8;2.8;;;;;;;16.81;56.74121;94541.96;;;;
2022/05/23 02:42:51;;;;;;;3.8;2.8;;;;;;;16.81;56.74121;94541.96;;;;
2022/05/23 02:43:52;;;;;;;3.8;2.8;;;;;;;16.81;56.74121;94541.96;;;;
2022/05/23 02:44:52;;;;;;;3.8;2.8;;;;;;;16.81;56.74121;94541.96;;;;
2022/05/23 02:45:53;;;;;;;3.8;2.8;;;;;;;16.81;56.74121;94541.96;;;;
2022/05/23 02:46:54;;;;;;;3.15;2.8;;;;;;;16.73;57.06055;94522.88;;;;
2022/05/23 02:47:55;;;;;;;3.15;2.8;;;;;;;16.73;57.06055;94522.88;;;;
2022/05/23 02:48:55;;;;;;;3.15;2.8;;;;;;;16.73;57.06055;94522.88;;;;
2022/05/23 02:49:56;;;;;;;3.15;2.8;;;;;;;16.73;57.06055;94522.88;;;;
2022/05/23 02:50:56;;;;;;;3.15;2.8;;;;;;;16.73;57.06055;94522.88;;;;
2022/05/23 02:51:57;;;;;;;3.15;2.8;;;;;;;16.73;57.06055;94522.88;;;;
2022/05/23 02:52:57;;;;;;;3.15;2.8;;;;;;;16.73;57.06055;94522.88;;;;
2022/05/23 02:53:58;;;;;;;3.15;2.8;;;;;;;16.73;57.06055;94522.88;;;;
2022/05/23 02:54:58;;;;;;;3.15;2.8;;;;;;;16.73;57.06055;94522.88;;;;
2022/05/23 02:55:59;;;;;;;3.15;2.8;;;;;;;16.73;57.06055;94522.88;;;;
2022/05/23 02:57:00;;;;;;;3.35;2.900001;;;;;;;16.69;57.29688;94514.6;;;;
2022/05/23 02:58:00;;;;;;;3.35;2.900001;;;;;;;16.69;57.29688;94514.6;;;;
2022/05/23 02:59:01;;;;;;;3.35;2.900001;;;;;;;16.69;57.29688;94514.6;;;;
2022/05/23 03:00:02;;;;;;;3.35;2.900001;;;;;;;16.69;57.29688;94514.6;;;;
2022/05/23 03:01:03;;;;;;;3.35;2.900001;;;;;;;16.69;57.29688;94514.6;;;;
2022/05/23 03:03:02;;;;;;;3.35;2.900001;;;;;;;16.69;57.29688;94514.6;;;;
2022/05/23 03:04:03;;;;;;;3.35;2.900001;;;;;;;16.69;57.29688;94514.6;;;;
2022/05/23 03:05:04;;;;;;;3.35;2.900001;;;;;;;16.69;57.29688;94514.6;;;;
2022/05/23 03:06:07;;;;;;;3.35;2.900001;;;;;;;16.69;57.29688;94514.6;;;;
2022/05/23 03:07:09;;;;;;;3.35;2.900001;;;;;;;16.69;57.29688;94514.6;;;;
2022/05/23 03:08:09;;;;;;;3.55;3;;;;;;;16.59;57.55762;94501.26;;;;
2022/05/23 03:09:12;;;;;;;3.55;3;;;;;;;16.59;57.55762;94501.26;;;;
2022/05/23 03:10:13;;;;;;;3.55;3;;;;;;;16.59;57.55762;94501.26;;;;
2022/05/23 03:11:14;;;;;;;3.55;3;;;;;;;16.59;57.55762;94501.26;;;;
2022/05/23 03:12:14;;;;;;;3.55;3;;;;;;;16.59;57.55762;94501.26;;;;
2022/05/23 03:13:15;;;;;;;3.55;3;;;;;;;16.59;57.55762;94501.26;;;;
2022/05/23 03:14:15;;;;;;;3.55;3;;;;;;;16.59;57.55762;94501.26;;;;
2022/05/23 03:15:16;;;;;;;3.55;3;;;;;;;16.59;57.55762;94501.26;;;;
2022/05/23 03:16:17;;;;;;;3.55;3;;;;;;;16.59;57.55762;94501.26;;;;
2022/05/23 03:17:17;;;;;;;3.55;3;;;;;;;16.59;57.55762;94501.26;;;;
2022/05/23 03:18:18;;;;;;;3.85;3;;;;;;;16.57;57.75293;94502.04;;;;
2022/05/23 03:19:18;;;;;;;3.85;3;;;;;;;16.57;57.75293;94502.04;;;;
2022/05/23 03:20:19;;;;;;;3.85;3;;;;;;;16.57;57.75293;94502.04;;;;
2022/05/23 03:26:58;;;;;;;3.85;3;;;;;;;16.57;57.75293;94502.04;;;;
2022/05/23 03:27:59;;;;;;;3.85;3;;;;;;;16.57;57.75293;94502.04;;;;
2022/05/23 03:29:00;;;;;;;4;3.15;;;;;;;16.45;58;94504.71;;;;
2022/05/23 03:30:01;;;;;;;4;3.15;;;;;;;16.45;58;94504.71;;;;
2022/05/23 03:31:03;;;;;;;4;3.15;;;;;;;16.45;58;94504.71;;;;
2022/05/23 03:32:04;;;;;;;4;3.15;;;;;;;16.45;58;94504.71;;;;
2022/05/23 03:33:07;;;;;;;4;3.15;;;;;;;16.45;58;94504.71;;;;
2022/05/23 03:34:08;;;;;;;4;3.15;;;;;;;16.45;58;94504.71;;;;
2022/05/23 03:35:08;;;;;;;4;3.15;;;;;;;16.45;58;94504.71;;;;
2022/05/23 03:36:10;;;;;;;4;3.15;;;;;;;16.45;58;94504.71;;;;
2022/05/23 03:37:10;;;;;;;4;3.15;;;;;;;16.45;58;94504.71;;;;
2022/05/23 03:38:11;;;;;;;4;3.15;;;;;;;16.45;58;94504.71;;;;
2022/05/23 03:39:11;;;;;;;4;3.15;;;;;;;16.45;58;94504.71;;;;
2022/05/23 03:40:11;;;;;;;3.6;3.25;;;;;;;16.44;58.39453;94482.95;;;;
2022/05/23 03:41:13;;;;;;;3.6;3.25;;;;;;;16.44;58.39453;94482.95;;;;
2022/05/23 03:42:13;;;;;;;3.6;3.25;;;;;;;16.44;58.39453;94482.95;;;;
2022/05/23 03:43:14;;;;;;;3.6;3.25;;;;;;;16.44;58.39453;94482.95;;;;
2022/05/23 03:44:15;;;;;;;3.6;3.25;;;;;;;16.44;58.39453;94482.95;;;;
2022/05/23 03:45:15;;;;;;;3.6;3.25;;;;;;;16.44;58.39453;94482.95;;;;
2022/05/23 03:46:16;;;;;;;3.6;3.25;;;;;;;16.44;58.39453;94482.95;;;;
2022/05/23 03:47:16;;;;;;;3.6;3.25;;;;;;;16.44;58.39453;94482.95;;;;
2022/05/23 03:48:17;;;;;;;3.6;3.25;;;;;;;16.44;58.39453;94482.95;;;;
2022/05/23 03:49:17;;;;;;;3.6;3.25;;;;;;;16.44;58.39453;94482.95;;;;
2022/05/23 03:50:18;;;;;;;4.8;3.2;;;;;;;16.42;58.5332;94467.74;;;;
2022/05/23 03:51:20;;;;;;;4.8;3.2;;;;;;;16.42;58.5332;94467.74;;;;
2022/05/23 03:52:21;;;;;;;4.8;3.2;;;;;;;16.42;58.5332;94467.74;;;;
2022/05/23 03:53:21;;;;;;;4.8;3.2;;;;;;;16.42;58.5332;94467.74;;;;
2022/05/23 03:54:21;;;;;;;4.8;3.2;;;;;;;16.42;58.5332;94467.74;;;;
2022/05/23 03:55:22;;;;;;;4.8;3.2;;;;;;;16.42;58.5332;94467.74;;;;
2022/05/23 03:56:23;;;;;;;4.8;3.2;;;;;;;16.42;58.5332;94467.74;;;;
2022/05/23 03:57:24;;;;;;;4.8;3.2;;;;;;;16.42;58.5332;94467.74;;;;
2022/05/23 03:58:25;;;;;;;4.8;3.2;;;;;;;16.42;58.5332;94467.74;;;;
2022/05/23 03:59:27;;;;;;;4.8;3.2;;;;;;;16.42;58.5332;94467.74;;;;
2022/05/23 04:00:29;;;;;;;4.8;3.2;;;;;;;16.42;58.5332;94467.74;;;;
2022/05/23 04:01:30;;;;;;;4.8;3.2;;;;;;;16.42;58.5332;94467.74;;;;
2022/05/23 04:02:31;;;;;;;4.8;3.2;;;;;;;16.42;58.5332;94467.74;;;;
2022/05/23 04:03:31;;;;;;;4.8;3.2;;;;;;;16.42;58.5332;94467.74;;;;
2022/05/23 04:04:32;;;;;;;4.8;3.2;;;;;;;16.42;58.5332;94467.74;;;;
2022/05/23 04:05:33;;;;;;;4.8;3.2;;;;;;;16.42;58.5332;94467.74;;;;
2022/05/23 04:06:35;;;;;;;4.8;3.2;;;;;;;16.42;58.5332;94467.74;;;;
2022/05/23 04:07:36;;;;;;;4.8;3.2;;;;;;;16.42;58.5332;94467.74;;;;
2022/05/23 04:08:37;;;;;;;4.8;3.2;;;;;;;16.42;58.5332;94467.74;;;;
2022/05/23 04:09:38;;;;;;;4.8;3.2;;;;;;;16.42;58.5332;94467.74;;;;
2022/05/23 04:10:38;;;;;;;4.8;3.2;;;;;;;16.42;58.5332;94467.74;;;;
2022/05/23 04:11:40;;;;;;;3.75;3.2;;;;;;;16.61;58.78809;94452.01;;;;
2022/05/23 04:12:41;;;;;;;3.75;3.2;;;;;;;16.61;58.78809;94452.01;;;;
2022/05/23 04:13:42;;;;;;;3.75;3.2;;;;;;;16.61;58.78809;94452.01;;;;
2022/05/23 04:14:42;;;;;;;3.75;3.2;;;;;;;16.61;58.78809;94452.01;;;;
2022/05/23 04:15:43;;;;;;;3.75;3.2;;;;;;;16.61;58.78809;94452.01;;;;
2022/05/23 04:16:43;;;;;;;3.75;3.2;;;;;;;16.61;58.78809;94452.01;;;;
2022/05/23 04:17:45;;;;;;;3.75;3.2;;;;;;;16.61;58.78809;94452.01;;;;
2022/05/23 04:18:45;;;;;;;3.75;3.2;;;;;;;16.61;58.78809;94452.01;;;;
2022/05/23 04:19:46;;;;;;;3.75;3.2;;;;;;;16.61;58.78809;94452.01;;;;
2022/05/23 04:20:48;;;;;;;3.75;3.2;;;;;;;16.61;58.78809;94452.01;;;;
2022/05/23 04:21:49;;;;;;;3.75;3.2;;;;;;;16.61;58.78809;94452.01;;;;
2022/05/23 04:22:50;;;;;;;4.599999;3.400001;;;;;;;16.66;58.90527;94450.69;;;;
2022/05/23 04:23:50;;;;;;;4.599999;3.400001;;;;;;;16.66;58.90527;94450.69;;;;
2022/05/23 04:24:50;;;;;;;4.599999;3.400001;;;;;;;16.66;58.90527;94450.69;;;;
2022/05/23 04:25:51;;;;;;;4.599999;3.400001;;;;;;;16.66;58.90527;94450.69;;;;
2022/05/23 04:26:51;;;;;;;4.599999;3.400001;;;;;;;16.66;58.90527;94450.69;;;;
2022/05/23 04:27:54;;;;;;;4.599999;3.400001;;;;;;;16.66;58.90527;94450.69;;;;
2022/05/23 04:28:55;;;;;;;4.599999;3.400001;;;;;;;16.66;58.90527;94450.69;;;;
2022/05/23 04:29:55;;;;;;;4.599999;3.400001;;;;;;;16.66;58.90527;94450.69;;;;
2022/05/23 04:30:56;;;;;;;4.599999;3.400001;;;;;;;16.66;58.90527;94450.69;;;;
2022/05/23 04:31:56;;;;;;;4.599999;3.400001;;;;;;;16.66;58.90527;94450.69;;;;
2022/05/23 04:38:08;;;;;;;4.599999;3.400001;;;;;;;16.66;58.90527;94450.69;;;;
2022/05/23 04:39:08;;;;;;;4.599999;3.400001;;;;;;;16.66;58.90527;94450.69;;;;
2022/05/23 04:40:09;;;;;;;4.599999;3.400001;;;;;;;16.66;58.90527;94450.69;;;;
2022/05/23 04:41:12;;;;;;;4.599999;3.400001;;;;;;;16.66;58.90527;94450.69;;;;
2022/05/23 04:42:13;;;;;;;4.599999;3.400001;;;;;;;16.66;58.90527;94450.69;;;;
2022/05/23 04:43:13;;;;;;;4.599999;3.400001;;;;;;;16.66;58.90527;94450.69;;;;
2022/05/23 04:44:14;;;;;;;4.599999;3.400001;;;;;;;16.66;58.90527;94450.69;;;;
2022/05/23 04:45:15;;;;;;;4.599999;3.400001;;;;;;;16.66;58.90527;94450.69;;;;
2022/05/23 04:46:16;;;;;;;4.599999;3.400001;;;;;;;16.66;58.90527;94450.69;;;;
2022/05/23 04:52:28;;;;;;;4.599999;3.400001;;;;;;;16.66;58.90527;94450.69;;;;
2022/05/23 04:53:28;;;;;;;4.599999;3.400001;;;;;;;16.66;58.90527;94450.69;;;;
2022/05/23 04:54:29;;;;;;;4.599999;3.400001;;;;;;;16.66;58.90527;94450.69;;;;
2022/05/23 04:55:30;;;;;;;4.599999;3.400001;;;;;;;16.66;58.90527;94450.69;;;;
2022/05/23 04:56:30;;;;;;;4.599999;3.400001;;;;;;;16.66;58.90527;94450.69;;;;
2022/05/23 04:57:31;;;;;;;4.599999;3.400001;;;;;;;16.66;58.90527;94450.69;;;;
2022/05/23 04:58:31;;;;;;;4.599999;3.400001;;;;;;;16.66;58.90527;94450.69;;;;
2022/05/23 04:59:32;;;;;;;4.599999;3.400001;;;;;;;16.66;58.90527;94450.69;;;;
2022/05/23 05:00:33;;;;;;;4.599999;3.400001;;;;;;;16.66;58.90527;94450.69;;;;
2022/05/23 05:01:34;;;;;;;4.599999;3.400001;;;;;;;16.66;58.90527;94450.69;;;;
2022/05/23 05:02:35;;;;;;;4.599999;3.400001;;;;;;;16.66;58.90527;94450.69;;;;
2022/05/23 05:03:36;;;;;;;4.599999;3.400001;;;;;;;16.66;58.90527;94450.69;;;;
2022/05/23 05:04:36;;;;;;;4.599999;3.400001;;;;;;;16.66;58.90527;94450.69;;;;
2022/05/23 05:05:37;;;;;;;4.45;3.65;;;;;;;17.67;58.90723;94422.69;;;;
2022/05/23 05:06:38;;;;;;;4.45;3.65;;;;;;;17.67;58.90723;94422.69;;;;
2022/05/23 05:07:38;;;;;;;4.45;3.65;;;;;;;17.67;58.90723;94422.69;;;;
2022/05/23 05:08:38;;;;;;;4.45;3.65;;;;;;;17.67;58.90723;94422.69;;;;
2022/05/23 05:09:39;;;;;;;4.45;3.65;;;;;;;17.67;58.90723;94422.69;;;;
2022/05/23 05:10:39;;;;;;;4.45;3.65;;;;;;;17.67;58.90723;94422.69;;;;
2022/05/23 05:11:40;;;;;;;4.45;3.65;;;;;;;17.67;58.90723;94422.69;;;;
2022/05/23 05:12:40;;;;;;;4.45;3.65;;;;;;;17.67;58.90723;94422.69;;;;
2022/05/23 05:13:43;;;;;;;4.45;3.65;;;;;;;17.67;58.90723;94422.69;;;;
2022/05/23 05:14:44;;;;;;;4.45;3.65;;;;;;;17.67;58.90723;94422.69;;;;
2022/05/23 05:15:45;;;;;;;4.699999;3.7;;;;;;;17.84;58.98535;94402.52;;;;
2022/05/23 05:16:46;;;;;;;4.699999;3.7;;;;;;;17.84;58.98535;94402.52;;;;
2022/05/23 05:17:47;;;;;;;4.699999;3.7;;;;;;;17.84;58.98535;94402.52;;;;
2022/05/23 05:18:47;;;;;;;4.699999;3.7;;;;;;;17.84;58.98535;94402.52;;;;
2022/05/23 05:19:48;;;;;;;4.699999;3.7;;;;;;;17.84;58.98535;94402.52;;;;
2022/05/23 05:20:49;;;;;;;4.699999;3.7;;;;;;;17.84;58.98535;94402.52;;;;
2022/05/23 05:21:49;;;;;;;4.699999;3.7;;;;;;;17.84;58.98535;94402.52;;;;
2022/05/23 05:22:50;;;;;;;4.699999;3.7;;;;;;;17.84;58.98535;94402.52;;;;
2022/05/23 05:23:51;;;;;;;4.699999;3.7;;;;;;;17.84;58.98535;94402.52;;;;
2022/05/23 05:24:51;;;;;;;4.699999;3.7;;;;;;;17.84;58.98535;94402.52;;;;
2022/05/23 05:25:52;;;;;;;4.699999;3.7;;;;;;;17.84;58.98535;94402.52;;;;
2022/05/23 05:26:53;;;;;;;4.699999;3.7;;;;;;;17.84;58.98535;94402.52;;;;
2022/05/23 05:27:53;;;;;;;4.699999;3.7;;;;;;;17.84;58.98535;94402.52;;;;
2022/05/23 05:28:54;;;;;;;4.699999;3.7;;;;;;;17.84;58.98535;94402.52;;;;
2022/05/23 05:29:55;;;;;;;4.699999;3.7;;;;;;;17.84;58.98535;94402.52;;;;
2022/05/23 05:30:56;;;;;;;4.699999;3.7;;;;;;;17.84;58.98535;94402.52;;;;
2022/05/23 05:32:09;;;;;;;4.699999;3.7;;;;;;;17.84;58.98535;94402.52;;;;
2022/05/23 05:33:14;;;;;;;4.699999;3.7;;;;;;;17.84;58.98535;94402.52;;;;
2022/05/23 05:34:20;;;;;;;4.699999;3.7;;;;;;;17.84;58.98535;94402.52;;;;
2022/05/23 05:35:27;;;;;;;4.699999;3.7;;;;;;;17.84;58.98535;94402.52;;;;
2022/05/23 05:36:32;;;;;;;4.699999;3.7;;;;;;;17.84;58.98535;94402.52;;;;
2022/05/23 05:37:43;;;;;;;6.5;4.349999;;;;;;;18.49;58.77441;94397.61;;;;
2022/05/23 05:38:49;;;;;;;6.5;4.349999;;;;;;;18.49;58.77441;94397.61;;;;
2022/05/23 05:39:56;;;;;;;6.5;4.349999;;;;;;;18.49;58.77441;94397.61;;;;
2022/05/23 05:41:01;;;;;;;6.5;4.349999;;;;;;;18.49;58.77441;94397.61;;;;
2022/05/23 05:42:09;;;;;;;6.5;4.349999;;;;;;;18.49;58.77441;94397.61;;;;
2022/05/23 05:43:13;;;;;;;6.5;4.349999;;;;;;;18.49;58.77441;94397.61;;;;
2022/05/23 05:44:20;;;;;;;6.5;4.349999;;;;;;;18.49;58.77441;94397.61;;;;
2022/05/23 05:45:25;;;;;;;6.5;4.349999;;;;;;;18.49;58.77441;94397.61;;;;
2022/05/23 05:46:31;;;;;;;6.5;4.349999;;;;;;;18.49;58.77441;94397.61;;;;
2022/05/23 05:47:34;;;;;;;6.5;4.349999;;;;;;;18.49;58.77441;94397.61;;;;
2022/05/23 05:48:40;;;;;;;6.5;4.349999;;;;;;;18.49;58.77441;94397.61;;;;
2022/05/23 05:49:43;;;;;;;6.5;4.349999;;;;;;;18.49;58.77441;94397.61;;;;
2022/05/23 05:50:46;;;;;;;6.5;4.349999;;;;;;;18.49;58.77441;94397.61;;;;
2022/05/23 05:51:49;;;;;;;6.5;4.349999;;;;;;;18.49;58.77441;94397.61;;;;
2022/05/23 05:52:53;;;;;;;6.5;4.349999;;;;;;;18.49;58.77441;94397.61;;;;
2022/05/23 05:53:58;;;;;;;6.5;4.349999;;;;;;;18.49;58.77441;94397.61;;;;
2022/05/23 05:54:58;;;;;;;6.5;4.349999;;;;;;;18.49;58.77441;94397.61;;;;
2022/05/23 05:56:00;;;;;;;6.5;4.349999;;;;;;;18.49;58.77441;94397.61;;;;
2022/05/23 05:57:03;;;;;;;6.5;4.349999;;;;;;;18.49;58.77441;94397.61;;;;
2022/05/23 05:58:05;;;;;;;6.5;4.349999;;;;;;;18.49;58.77441;94397.61;;;;
2022/05/23 05:59:07;;;;;;;4.649999;4.149999;;;;;;;19.61;57.91797;94402.36;;;;
2022/05/23 06:00:08;;;;;;;4.649999;4.149999;;;;;;;19.61;57.91797;94402.36;;;;
2022/05/23 06:01:09;;;;;;;4.649999;4.149999;;;;;;;19.61;57.91797;94402.36;;;;
2022/05/23 06:02:09;;;;;;;4.649999;4.149999;;;;;;;19.61;57.91797;94402.36;;;;
2022/05/23 06:03:10;;;;;;;4.649999;4.149999;;;;;;;19.61;57.91797;94402.36;;;;
2022/05/23 06:04:10;;;;;;;4.649999;4.149999;;;;;;;19.61;57.91797;94402.36;;;;
2022/05/23 06:05:11;;;;;;;4.649999;4.149999;;;;;;;19.61;57.91797;94402.36;;;;
2022/05/23 06:11:24;;;;;;;8.049999;4.05;;;;;;;20.06;57.65723;94407.47;;;;
2022/05/23 06:12:25;;;;;;;8.049999;4.05;;;;;;;20.06;57.65723;94407.47;;;;
2022/05/23 06:13:25;;;;;;;8.049999;4.05;;;;;;;20.06;57.65723;94407.47;;;;
2022/05/23 06:14:26;;;;;;;8.049999;4.05;;;;;;;20.06;57.65723;94407.47;;;;
2022/05/23 06:15:26;;;;;;;8.049999;4.05;;;;;;;20.06;57.65723;94407.47;;;;
2022/05/23 06:16:27;;;;;;;8.049999;4.05;;;;;;;20.06;57.65723;94407.47;;;;
2022/05/23 06:17:30;;;;;;;8.049999;4.05;;;;;;;20.06;57.65723;94407.47;;;;
2022/05/23 06:18:31;;;;;;;8.049999;4.05;;;;;;;20.06;57.65723;94407.47;;;;
2022/05/23 06:19:31;;;;;;;8.049999;4.05;;;;;;;20.06;57.65723;94407.47;;;;
2022/05/23 06:20:37;;;;;;;7.3;4.05;;;;;;;20.27;57.65039;94420.86;;;;
2022/05/23 06:21:38;;;;;;;7.3;4.05;;;;;;;20.27;57.65039;94420.86;;;;
2022/05/23 06:22:39;;;;;;;7.3;4.05;;;;;;;20.27;57.65039;94420.86;;;;